Time;durP1;ratioP1;P1;durP2;ratioP2;P2;SDS_P1;SDS_P2;PMS_P1;PMS_P2;Temp;Humidity;BMP_temperature;BMP_pressure;BME280_temperature;BME280_humidity;BME280_pressure;Samples;Min_cycle;Max_cycle;Signal;HPM_P1;HPM_P2
2022/10/23 00:00:46;;;;;;;5.38;3.00;;;;;;;12.24;87.58;98318.59;5051071;28;20036;-91
2022/10/23 00:03:11;;;;;;;8.35;3.78;;;;;;;12.18;87.84;98319.41;5050257;28;20507;-91
2022/10/23 00:05:40;;;;;;;5.22;3.30;;;;;;;12.20;87.76;98327.88;5061575;28;20029;-92
2022/10/23 00:08:06;;;;;;;6.22;3.53;;;;;;;12.22;88.52;98341.63;5048979;28;20036;-92
2022/10/23 00:10:32;;;;;;;5.97;3.58;;;;;;;12.12;88.53;98343.88;5042322;28;20116;-92
2022/10/23 00:12:58;;;;;;;6.00;2.75;;;;;;;11.98;88.94;98325.47;5051025;28;20564;-92
2022/10/23 00:15:26;;;;;;;5.63;3.60;;;;;;;11.91;88.89;98329.91;5029239;28;20116;-92
2022/10/23 00:17:54;;;;;;;5.90;3.35;;;;;;;11.94;89.28;98334.78;5030414;28;20033;-92
2022/10/23 00:20:20;;;;;;;5.10;3.42;;;;;;;11.83;89.64;98324.06;5035844;28;20142;-92
2022/10/23 00:22:46;;;;;;;4.38;3.55;;;;;;;11.83;89.60;98332.75;5049500;28;20033;-92
2022/10/23 00:25:11;;;;;;;10.48;4.13;;;;;;;11.82;89.62;98325.88;5038374;28;20436;-91
2022/10/23 00:27:37;;;;;;;6.75;3.65;;;;;;;11.84;89.78;98331.72;5046238;28;20606;-92
2022/10/23 00:30:04;;;;;;;6.40;3.20;;;;;;;11.90;89.49;98338.00;5045450;28;20111;-91
2022/10/23 00:32:30;;;;;;;6.20;3.40;;;;;;;11.78;89.43;98337.75;5050863;28;20037;-92
2022/10/23 00:34:55;;;;;;;4.20;3.50;;;;;;;11.71;89.50;98318.56;5045391;28;20886;-91
2022/10/23 00:37:21;;;;;;;4.50;3.20;;;;;;;11.78;89.62;98327.25;5036297;28;20040;-91
2022/10/23 00:39:47;;;;;;;5.15;3.28;;;;;;;11.69;89.52;98302.97;5050235;28;20037;-91
2022/10/23 00:42:19;;;;;;;5.93;3.40;;;;;;;11.85;88.64;98325.47;5040580;28;20043;-91
2022/10/23 00:44:44;;;;;;;5.25;3.47;;;;;;;11.77;89.15;98323.00;5034836;28;20496;-91
2022/10/23 00:47:22;;;;;;;3.42;2.90;;;;;;;11.65;89.61;98311.50;5052987;28;20033;-91
2022/10/23 00:49:48;;;;;;;6.30;3.20;;;;;;;11.62;89.79;98307.44;5045024;28;20033;-92
2022/10/23 00:52:14;;;;;;;4.97;2.92;;;;;;;11.66;90.54;98305.22;5055188;28;20034;-91
2022/10/23 00:54:42;;;;;;;6.75;3.38;;;;;;;11.47;90.91;98286.63;5044234;28;20037;-91
2022/10/23 00:57:13;;;;;;;8.02;4.53;;;;;;;11.56;90.91;98296.91;5049064;28;20029;-91
2022/10/23 00:59:39;;;;;;;8.27;3.10;;;;;;;11.64;90.38;98312.50;5032081;28;20098;-92
2022/10/23 01:02:05;;;;;;;4.03;3.10;;;;;;;11.46;90.02;98303.38;5045087;28;20037;-91
2022/10/23 01:04:33;;;;;;;6.90;3.58;;;;;;;11.53;90.90;98317.34;5046654;28;20112;-91
2022/10/23 01:07:12;;;;;;;3.90;3.38;;;;;;;11.47;91.60;98307.63;5050139;28;20529;-92
2022/10/23 01:09:53;;;;;;;5.15;3.50;;;;;;;11.57;91.27;98306.41;5048827;28;20029;-91
2022/10/23 01:12:34;;;;;;;3.65;2.97;;;;;;;11.47;91.29;98298.94;5049196;28;20055;-92
2022/10/23 01:15:12;;;;;;;7.60;3.10;;;;;;;11.46;91.35;98298.13;5048834;28;20033;-92
2022/10/23 01:17:50;;;;;;;5.50;3.20;;;;;;;11.56;90.76;98292.47;5048332;28;20037;-92
2022/10/23 01:20:44;;;;;;;5.20;3.55;;;;;;;11.53;91.91;98301.56;5049640;28;20056;-91
2022/10/23 01:24:05;;;;;;;4.70;3.20;;;;;;;11.49;91.15;98283.78;5030118;28;20041;-91
2022/10/23 01:26:42;;;;;;;4.40;3.42;;;;;;;11.56;91.36;98289.03;5052636;28;20025;-91
2022/10/23 01:29:26;;;;;;;4.20;3.40;;;;;;;11.59;91.53;98289.47;5048074;28;20122;-91
2022/10/23 01:32:23;;;;;;;4.07;3.30;;;;;;;11.55;91.06;98279.53;5050180;28;20476;-91
2022/10/23 01:35:05;;;;;;;5.13;3.22;;;;;;;11.50;90.69;98269.63;5049646;28;20029;-91
2022/10/23 01:38:00;;;;;;;7.65;3.63;;;;;;;11.44;90.91;98268.63;5031569;28;20029;-91
2022/10/23 01:40:39;;;;;;;6.40;3.45;;;;;;;11.39;90.33;98262.34;5050000;28;20043;-90
2022/10/23 01:43:15;;;;;;;5.97;3.15;;;;;;;11.43;90.20;98271.44;5044409;28;20044;-91
2022/10/23 01:45:52;;;;;;;5.40;3.60;;;;;;;11.34;90.28;98262.97;5048867;28;20087;-91
2022/10/23 01:48:27;;;;;;;8.48;3.35;;;;;;;11.48;89.95;98277.72;5046170;28;20052;-91
2022/10/23 01:50:57;;;;;;;5.13;3.72;;;;;;;11.48;90.45;98274.28;5045896;28;20036;-91
2022/10/23 01:53:30;;;;;;;6.13;3.65;;;;;;;11.43;90.69;98269.63;5052799;28;20032;-91
2022/10/23 01:55:58;;;;;;;7.47;3.85;;;;;;;11.25;91.10;98240.53;5046793;28;20032;-91
2022/10/23 01:58:27;;;;;;;4.78;3.83;;;;;;;11.40;93.15;98270.03;5053459;28;20057;-91
2022/10/23 02:01:00;;;;;;;4.22;3.83;;;;;;;11.40;94.14;98259.53;5053599;28;20040;-91
2022/10/23 02:03:32;;;;;;;6.05;3.75;;;;;;;11.40;93.24;98254.28;5047091;28;20029;-91
2022/10/23 02:05:57;;;;;;;8.50;3.88;;;;;;;11.33;91.53;98252.63;5048242;28;20108;-91
2022/10/23 02:08:24;;;;;;;5.05;3.45;;;;;;;11.36;91.66;98252.25;5050128;28;20144;-91
2022/10/23 02:11:13;;;;;;;5.60;3.97;;;;;;;11.43;91.75;98259.13;5031857;28;20033;-92
2022/10/23 02:13:47;;;;;;;4.20;3.30;;;;;;;11.48;91.26;98264.59;5031837;28;20037;-91
2022/10/23 02:16:34;;;;;;;3.97;3.40;;;;;;;11.40;90.67;98241.16;5060867;28;20083;-91
2022/10/23 02:19:26;;;;;;;6.22;3.40;;;;;;;11.39;91.44;98239.50;5044823;28;20048;-92
2022/10/23 02:22:17;;;;;;;5.25;3.58;;;;;;;11.45;92.09;98243.97;5059399;28;20089;-91
2022/10/23 02:25:19;;;;;;;6.10;3.63;;;;;;;11.39;92.75;98244.75;5033896;28;20032;-91
2022/10/23 02:27:51;;;;;;;7.65;3.97;;;;;;;11.16;93.36;98212.84;5031320;28;20046;-91
2022/10/23 02:30:19;;;;;;;7.53;4.60;;;;;;;11.38;92.68;98245.78;5015016;28;20034;-90
2022/10/23 02:32:50;;;;;;;5.93;3.80;;;;;;;11.32;92.33;98233.47;5049280;28;20041;-91
2022/10/23 02:35:19;;;;;;;4.70;4.18;;;;;;;11.31;91.51;98223.97;5051991;28;20548;-91
2022/10/23 02:37:57;;;;;;;6.53;3.88;;;;;;;11.47;91.23;98243.78;5051172;28;20044;-91
2022/10/23 02:40:42;;;;;;;7.38;5.90;;;;;;;11.30;91.07;98232.84;5047278;28;20039;-90
2022/10/23 02:43:26;;;;;;;7.30;5.63;;;;;;;11.32;91.76;98230.03;5051484;28;20033;-92
2022/10/23 02:46:06;;;;;;;6.78;4.47;;;;;;;11.39;91.85;98226.38;5029930;28;20033;-91
2022/10/23 02:48:51;;;;;;;10.20;5.57;;;;;;;11.30;91.49;98246.00;5060160;28;20026;-91
2022/10/23 02:51:37;;;;;;;6.50;4.68;;;;;;;11.30;91.04;98238.09;5060620;28;20400;-91
2022/10/23 02:54:25;;;;;;;9.13;4.50;;;;;;;11.24;89.92;98244.16;5051420;28;20033;-91
2022/10/23 02:57:10;;;;;;;7.28;4.50;;;;;;;11.33;90.33;98253.44;5050065;28;20068;-91
2022/10/23 02:59:45;;;;;;;7.95;4.43;;;;;;;11.31;89.96;98244.16;5067434;28;20052;-91
2022/10/23 03:02:25;;;;;;;7.72;3.83;;;;;;;11.31;90.89;98239.72;5040195;28;20558;-90
2022/10/23 03:04:54;;;;;;;7.60;3.70;;;;;;;11.24;91.62;98231.84;5038702;28;20056;-91
2022/10/23 03:07:20;;;;;;;5.10;4.05;;;;;;;11.30;91.81;98239.94;5051555;28;20562;-91
2022/10/23 03:09:49;;;;;;;5.93;3.78;;;;;;;11.20;90.81;98227.19;5034829;28;20064;-91
2022/10/23 03:12:14;;;;;;;6.38;3.95;;;;;;;11.32;89.82;98228.19;5067575;28;20116;-91
2022/10/23 03:14:40;;;;;;;5.10;4.13;;;;;;;11.20;90.36;98212.22;5040425;28;20167;-91
2022/10/23 03:17:06;;;;;;;4.45;3.95;;;;;;;11.22;90.39;98209.44;5040646;28;20041;-91
2022/10/23 03:19:31;;;;;;;4.63;4.05;;;;;;;11.26;91.11;98226.38;5045509;28;20078;-91
2022/10/23 03:21:56;;;;;;;5.38;4.20;;;;;;;11.29;90.20;98241.75;5050413;28;20117;-91
2022/10/23 03:24:22;;;;;;;6.85;4.57;;;;;;;11.20;90.18;98230.63;5032822;28;20029;-91
2022/10/23 03:26:48;;;;;;;6.80;5.97;;;;;;;11.23;89.16;98232.84;5047522;28;20116;-91
2022/10/23 03:29:13;;;;;;;5.97;5.13;;;;;;;11.24;89.37;98225.78;5046678;28;20488;-90
2022/10/23 03:31:39;;;;;;;5.22;3.85;;;;;;;11.20;90.53;98233.25;5047633;28;20033;-91
2022/10/23 03:34:09;;;;;;;7.82;4.20;;;;;;;11.18;91.53;98232.63;5046867;28;20090;-91
2022/10/23 03:36:35;;;;;;;6.65;3.75;;;;;;;11.10;91.00;98214.47;5034840;28;20071;-91
2022/10/23 03:39:01;;;;;;;5.05;4.28;;;;;;;11.14;90.33;98214.84;5051430;28;20099;-90
2022/10/23 03:41:26;;;;;;;9.95;6.30;;;;;;;11.09;89.70;98219.88;5031630;28;20042;-91
2022/10/23 03:43:52;;;;;;;9.25;5.72;;;;;;;11.03;89.86;98215.44;5037912;28;20052;-91
2022/10/23 03:46:17;;;;;;;6.53;5.05;;;;;;;10.98;89.73;98210.81;5053660;28;20031;-91
2022/10/23 03:48:43;;;;;;;9.95;5.30;;;;;;;10.98;89.67;98214.25;5037569;28;20104;-90
2022/10/23 03:51:08;;;;;;;7.53;4.57;;;;;;;10.98;90.32;98216.06;5050607;28;20086;-91
2022/10/23 03:53:34;;;;;;;7.72;4.28;;;;;;;11.00;90.51;98214.03;5049831;28;20516;-91
2022/10/23 03:56:00;;;;;;;4.15;3.75;;;;;;;10.89;90.70;98207.53;5051136;28;20399;-92
2022/10/23 03:58:25;;;;;;;4.50;4.10;;;;;;;10.95;90.66;98225.13;5051345;28;20488;-92
2022/10/23 04:00:51;;;;;;;6.70;4.18;;;;;;;10.77;90.38;98206.50;5051083;28;20033;-91
2022/10/23 04:03:16;;;;;;;5.30;4.13;;;;;;;10.86;90.81;98217.66;5065872;28;20087;-91
2022/10/23 04:05:42;;;;;;;6.82;4.97;;;;;;;10.75;91.12;98213.78;5029972;28;20393;-91
2022/10/23 04:08:09;;;;;;;6.30;4.30;;;;;;;10.82;91.12;98230.34;5050617;28;20045;-91
2022/10/23 04:10:34;;;;;;;8.98;4.22;;;;;;;10.74;91.20;98227.91;5049151;28;20127;-91
2022/10/23 04:13:00;;;;;;;6.35;4.88;;;;;;;10.69;91.11;98222.44;5050409;28;20039;-91
2022/10/23 04:15:25;;;;;;;8.50;4.20;;;;;;;10.74;91.17;98229.72;5050894;28;20029;-91
2022/10/23 04:17:50;;;;;;;7.88;4.03;;;;;;;10.59;91.33;98214.13;5046384;28;20108;-92
2022/10/23 04:20:16;;;;;;;10.40;8.75;;;;;;;10.54;91.21;98198.97;5034620;28;20041;-91
2022/10/23 04:22:42;;;;;;;12.82;9.40;;;;;;;10.51;91.21;98191.50;5057278;28;20037;-91
2022/10/23 04:25:08;;;;;;;7.53;6.47;;;;;;;10.57;90.35;98216.13;5050185;28;20064;-92
2022/10/23 04:27:33;;;;;;;9.55;6.65;;;;;;;10.68;90.52;98234.75;5032351;28;20041;-91
2022/10/23 04:30:00;;;;;;;8.20;5.35;;;;;;;10.62;90.45;98213.75;5037091;28;20037;-92
2022/10/23 04:32:29;;;;;;;7.80;4.82;;;;;;;10.72;90.53;98219.41;5044755;28;20055;-92
2022/10/23 04:34:54;;;;;;;6.03;5.20;;;;;;;10.58;90.72;98191.53;5057317;28;20036;-91
2022/10/23 04:37:20;;;;;;;11.43;8.70;;;;;;;10.62;90.81;98205.88;5040705;28;20116;-91
2022/10/23 04:39:45;;;;;;;18.15;14.40;;;;;;;10.61;90.56;98206.84;5049562;28;20037;-91
2022/10/23 04:42:11;;;;;;;18.45;14.00;;;;;;;10.56;90.50;98196.97;5043462;28;20087;-90
2022/10/23 04:44:36;;;;;;;18.77;10.80;;;;;;;10.51;90.80;98203.81;5040134;28;20056;-92
2022/10/23 04:47:10;;;;;;;17.42;11.02;;;;;;;10.26;90.88;98185.97;5050005;28;20041;-91
2022/10/23 04:49:35;;;;;;;17.48;11.02;;;;;;;10.32;91.45;98187.81;5049866;28;20040;-92
2022/10/23 04:52:01;;;;;;;10.40;7.50;;;;;;;10.29;92.61;98190.81;5049253;28;20082;-91
2022/10/23 04:54:27;;;;;;;12.45;7.18;;;;;;;10.39;94.07;98214.06;5044033;28;20037;-91
2022/10/23 04:56:52;;;;;;;9.65;6.35;;;;;;;10.32;94.89;98187.81;5029503;28;20124;-92
2022/10/23 04:59:18;;;;;;;8.30;5.70;;;;;;;10.45;96.39;98200.16;5038811;28;20112;-90
2022/10/23 05:01:44;;;;;;;14.45;8.65;;;;;;;10.41;95.32;98201.53;5046353;28;20041;-91
2022/10/23 05:04:09;;;;;;;12.93;7.00;;;;;;;10.59;94.89;98224.63;5038564;28;20593;-92
2022/10/23 05:06:35;;;;;;;9.77;6.50;;;;;;;10.40;95.33;98199.94;5042059;28;20436;-91
2022/10/23 05:09:03;;;;;;;8.88;6.28;;;;;;;10.54;95.58;98219.13;5031684;28;20034;-91
2022/10/23 05:11:28;;;;;;;13.82;8.13;;;;;;;10.53;94.89;98199.16;5043009;28;20060;-91
2022/10/23 05:13:54;;;;;;;15.45;8.63;;;;;;;10.63;94.47;98217.97;5030790;28;20043;-91
2022/10/23 05:16:34;;;;;;;10.48;6.95;;;;;;;10.51;93.58;98203.81;5037184;28;20030;-91
2022/10/23 05:19:01;;;;;;;12.23;7.10;;;;;;;10.62;93.81;98213.75;5038885;28;20033;-91
2022/10/23 05:21:32;;;;;;;11.85;6.85;;;;;;;10.45;93.59;98180.00;5039814;28;20028;-91
2022/10/23 05:24:00;;;;;;;6.22;4.50;;;;;;;10.62;94.49;98216.38;5053355;28;20072;-91
2022/10/23 05:26:29;;;;;;;14.10;6.90;;;;;;;10.53;94.75;98199.16;5045765;28;20032;-90
2022/10/23 05:28:55;;;;;;;16.98;8.00;;;;;;;10.45;94.92;98195.72;5039821;28;20114;-91
2022/10/23 05:31:24;;;;;;;14.13;7.30;;;;;;;10.42;95.18;98209.22;5043449;28;20037;-91
2022/10/23 05:33:53;;;;;;;15.88;7.70;;;;;;;10.44;95.78;98201.16;5040502;28;20060;-90
2022/10/23 05:36:21;;;;;;;13.35;6.90;;;;;;;10.57;95.67;98218.75;5049439;28;20040;-90
2022/10/23 05:38:47;;;;;;;14.18;7.05;;;;;;;10.45;95.33;98208.84;5040693;28;20041;-90
2022/10/23 05:41:12;;;;;;;9.93;5.20;;;;;;;10.40;95.70;98216.47;5048348;28;20099;-89
2022/10/23 05:43:37;;;;;;;7.60;5.20;;;;;;;10.42;94.96;98219.69;5048638;28;20124;-90
2022/10/23 05:46:05;;;;;;;7.53;4.75;;;;;;;10.41;95.03;98191.88;5039201;28;20033;-90
2022/10/23 05:48:32;;;;;;;10.82;5.15;;;;;;;10.57;94.78;98206.47;5047485;28;20055;-90
2022/10/23 05:51:10;;;;;;;6.70;3.85;;;;;;;10.50;95.56;98186.47;5041115;28;20029;-90
2022/10/23 05:53:36;;;;;;;6.30;3.80;;;;;;;10.39;96.24;98170.28;5043305;28;20496;-90
2022/10/23 05:56:06;;;;;;;6.22;3.80;;;;;;;10.58;97.16;98196.78;5052520;28;20033;-91
2022/10/23 05:58:32;;;;;;;6.57;4.25;;;;;;;10.46;97.35;98183.41;5053375;28;20120;-90
2022/10/23 06:00:58;;;;;;;8.65;4.50;;;;;;;10.54;96.84;98188.47;5051598;28;20047;-91
2022/10/23 06:03:23;;;;;;;4.30;3.85;;;;;;;10.58;96.92;98196.78;5050042;28;20033;-90
2022/10/23 06:05:50;;;;;;;3.95;3.55;;;;;;;10.56;97.11;98188.31;5048349;28;20082;-89
2022/10/23 06:08:16;;;;;;;6.60;3.85;;;;;;;10.67;96.54;98187.72;5052187;28;20404;-91
2022/10/23 06:10:41;;;;;;;6.53;4.22;;;;;;;10.69;96.30;98188.34;5045156;28;20040;-91
2022/10/23 06:13:07;;;;;;;7.18;3.50;;;;;;;10.75;96.01;98186.75;5051516;28;20388;-91
2022/10/23 06:15:32;;;;;;;6.13;3.80;;;;;;;10.74;95.54;98178.06;5038390;28;20037;-91
2022/10/23 06:18:04;;;;;;;7.03;4.47;;;;;;;10.91;95.33;98200.28;5061990;28;20411;-90
2022/10/23 06:20:29;;;;;;;7.25;4.20;;;;;;;10.79;95.25;98186.13;5034325;28;20033;-91
2022/10/23 06:22:55;;;;;;;5.18;3.53;;;;;;;10.90;95.33;98211.78;5043759;28;20446;-92
2022/10/23 06:25:20;;;;;;;5.47;3.80;;;;;;;10.84;95.38;98207.31;5050783;28;20094;-92
2022/10/23 06:27:46;;;;;;;5.30;4.07;;;;;;;10.88;95.60;98208.56;5059544;28;20484;-93
2022/10/23 06:30:12;;;;;;;6.20;3.63;;;;;;;10.98;95.44;98202.94;5062846;28;20112;-92
2022/10/23 06:32:38;;;;;;;4.30;3.47;;;;;;;10.88;94.69;98186.75;5042768;28;20040;-93
2022/10/23 06:35:07;;;;;;;4.03;3.60;;;;;;;11.05;94.80;98197.69;5050034;28;20033;-93
2022/10/23 06:37:33;;;;;;;4.55;3.35;;;;;;;11.08;94.79;98203.34;5035266;28;20040;-93
2022/10/23 06:39:59;;;;;;;4.85;3.88;;;;;;;11.17;94.52;98201.34;5051267;28;20045;-92
2022/10/23 06:42:24;;;;;;;5.47;3.80;;;;;;;11.32;94.16;98215.06;5051969;28;20642;-92
2022/10/23 06:44:50;;;;;;;8.50;4.28;;;;;;;11.52;93.33;98215.91;5050532;28;20705;-93
2022/10/23 06:47:17;;;;;;;4.57;3.67;;;;;;;11.55;93.37;98192.88;5031568;28;20542;-93
2022/10/23 06:49:42;;;;;;;5.15;3.50;;;;;;;11.68;91.29;98208.59;5048880;28;20064;-93
2022/10/23 06:52:08;;;;;;;3.83;3.38;;;;;;;11.72;91.37;98208.00;5051219;28;20044;-93
2022/10/23 06:54:33;;;;;;;7.13;3.60;;;;;;;11.71;91.85;98202.97;5052459;28;20084;-93
2022/10/23 06:56:59;;;;;;;4.72;3.40;;;;;;;11.91;91.40;98206.38;5051603;28;20036;-94
2022/10/23 06:59:25;;;;;;;4.65;3.35;;;;;;;11.81;90.50;98195.47;5041137;28;20082;-92
2022/10/23 07:01:50;;;;;;;4.65;3.30;;;;;;;11.95;90.22;98226.00;5047117;28;20061;-92
2022/10/23 07:04:16;;;;;;;3.53;3.22;;;;;;;11.85;90.61;98193.25;5025616;28;20431;-92
2022/10/23 07:06:42;;;;;;;6.25;3.28;;;;;;;12.03;91.44;98212.63;5045433;28;20029;-93
2022/10/23 07:09:10;;;;;;;4.10;3.13;;;;;;;12.04;90.36;98213.44;5051159;28;20033;-92
2022/10/23 07:11:36;;;;;;;3.17;2.88;;;;;;;11.90;90.56;98194.25;5062975;28;20598;-93
2022/10/23 07:14:03;;;;;;;3.47;3.00;;;;;;;12.04;89.20;98219.50;5030944;28;20033;-91
2022/10/23 07:16:31;;;;;;;5.63;3.35;;;;;;;11.93;89.59;98196.47;5030584;28;20481;-92
2022/10/23 07:19:00;;;;;;;4.03;3.25;;;;;;;11.91;89.53;98190.63;5031110;28;20033;-92
2022/10/23 07:21:33;;;;;;;3.80;2.63;;;;;;;11.93;88.35;98188.56;5049160;28;20045;-92
2022/10/23 07:24:00;;;;;;;4.50;2.97;;;;;;;11.92;88.79;98175.66;5046496;28;20025;-92
2022/10/23 07:26:26;;;;;;;4.53;2.97;;;;;;;12.15;89.24;98204.09;5046157;28;20029;-92
2022/10/23 07:28:54;;;;;;;4.18;3.03;;;;;;;12.17;88.11;98212.59;5051470;28;20032;-92
2022/10/23 07:31:24;;;;;;;3.22;2.83;;;;;;;12.10;87.95;98180.25;5049362;28;20040;-93
2022/10/23 07:33:51;;;;;;;3.25;2.95;;;;;;;12.25;88.04;98210.56;5050217;28;20029;-93
2022/10/23 07:36:17;;;;;;;3.13;2.83;;;;;;;12.30;88.77;98196.78;5051566;28;20037;-92
2022/10/23 07:38:44;;;;;;;3.67;3.30;;;;;;;12.41;88.85;98201.38;5038466;28;20045;-92
2022/10/23 07:41:12;;;;;;;3.33;3.03;;;;;;;12.69;88.60;98200.25;5046828;28;20033;-92
2022/10/23 07:43:37;;;;;;;6.20;3.10;;;;;;;12.72;86.57;98186.69;5050014;28;20041;-92
2022/10/23 07:46:03;;;;;;;3.25;2.95;;;;;;;12.85;86.77;98183.97;5048927;28;20546;-93
2022/10/23 07:48:29;;;;;;;3.30;2.65;;;;;;;12.98;85.74;98189.16;5067927;28;20028;-93
2022/10/23 07:51:07;;;;;;;4.38;3.08;;;;;;;13.15;85.84;98212.34;5047671;28;20098;-93
2022/10/23 07:53:40;;;;;;;3.33;2.83;;;;;;;13.25;85.80;98189.78;5019087;28;20494;-92
2022/10/23 07:56:19;;;;;;;3.30;3.00;;;;;;;13.43;84.70;98196.16;5033920;28;20041;-93
2022/10/23 07:58:45;;;;;;;4.35;2.72;;;;;;;13.32;84.22;98176.59;5047334;28;20040;-92
2022/10/23 08:01:30;;;;;;;2.78;2.42;;;;;;;13.41;83.55;98177.94;5067276;28;20032;-92
2022/10/23 08:03:55;;;;;;;3.60;2.53;;;;;;;13.47;83.43;98155.97;5040355;28;20039;-93
2022/10/23 08:06:21;;;;;;;3.00;2.45;;;;;;;13.75;81.97;98178.44;5049826;28;20021;-92
2022/10/23 08:08:54;;;;;;;3.20;2.90;;;;;;;13.83;81.49;98163.13;5033131;28;20032;-93
2022/10/23 08:11:26;;;;;;;4.57;2.50;;;;;;;13.82;81.85;98152.81;5050558;28;20225;-93
2022/10/23 08:13:54;;;;;;;6.97;2.97;;;;;;;13.95;81.86;98160.59;5050478;28;20048;-93
2022/10/23 08:16:23;;;;;;;2.60;2.40;;;;;;;14.16;80.66;98177.81;5066751;28;20021;-93
2022/10/23 08:18:50;;;;;;;3.72;2.58;;;;;;;14.19;81.78;98180.00;5050472;28;20032;-93
2022/10/23 08:21:17;;;;;;;3.85;2.72;;;;;;;14.10;81.77;98161.03;5042639;28;20033;-93
2022/10/23 08:23:43;;;;;;;2.75;2.55;;;;;;;14.36;82.57;98177.56;5032971;28;20043;-92
2022/10/23 08:26:10;;;;;;;3.05;2.10;;;;;;;14.34;80.85;98150.63;5043186;28;20033;-93
2022/10/23 08:28:36;;;;;;;3.85;2.97;;;;;;;14.34;81.03;98142.72;5033237;28;20037;-93
2022/10/23 08:31:14;;;;;;;4.72;2.38;;;;;;;14.57;81.17;98169.19;5030836;28;20037;-92
2022/10/23 08:33:44;;;;;;;2.67;2.47;;;;;;;14.55;80.56;98147.50;5013427;28;20171;-93
2022/10/23 08:36:27;;;;;;;3.42;2.28;;;;;;;14.70;80.72;98166.41;5049615;28;20040;-93
2022/10/23 08:38:57;;;;;;;3.63;2.50;;;;;;;14.83;80.26;98154.06;5048364;28;20033;-93
2022/10/23 08:41:36;;;;;;;2.50;2.30;;;;;;;15.13;80.71;98154.81;5032032;28;20037;-92
2022/10/23 08:44:18;;;;;;;6.32;2.40;;;;;;;15.20;78.74;98150.22;5029958;28;20116;-91
2022/10/23 08:47:15;;;;;;;2.55;2.33;;;;;;;15.22;78.99;98157.91;5029731;28;20025;-92
2022/10/23 08:49:55;;;;;;;5.85;2.40;;;;;;;15.20;78.58;98155.50;5049517;28;20033;-93
2022/10/23 08:52:33;;;;;;;3.50;2.50;;;;;;;15.07;78.67;98136.44;5032127;28;20120;-92
2022/10/23 08:55:27;;;;;;;2.25;2.03;;;;;;;15.08;77.84;98127.47;5047383;28;20041;-92
2022/10/23 08:58:14;;;;;;;2.45;2.10;;;;;;;15.33;79.59;98145.75;5049317;28;20496;-92
2022/10/23 09:00:47;;;;;;;2.75;2.10;;;;;;;15.25;79.26;98126.56;5029498;28;20025;-92
2022/10/23 09:03:13;;;;;;;2.95;2.42;;;;;;;15.27;80.02;98102.56;5047118;28;20031;-93
2022/10/23 09:06:38;;;;;;;2.40;2.10;;;;;;;15.38;79.03;98124.75;5050999;28;20472;-92
2022/10/23 09:09:55;;;;;;;4.60;2.17;;;;;;;15.58;79.09;98143.69;5049073;28;20029;-93
2022/10/23 09:12:27;;;;;;;3.80;2.10;;;;;;;15.50;78.94;98122.91;5025067;28;20037;-94
2022/10/23 09:15:11;;;;;;;1.80;1.70;;;;;;;15.61;79.16;98124.75;5013975;28;20041;-93
2022/10/23 09:17:46;;;;;;;2.30;2.10;;;;;;;15.83;77.70;98138.19;5043557;28;20040;-93
2022/10/23 09:20:37;;;;;;;2.28;2.08;;;;;;;15.72;78.57;98121.31;5049198;28;20043;-94
2022/10/23 09:23:15;;;;;;;6.65;2.10;;;;;;;15.94;77.57;98144.50;5032794;28;20032;-93
2022/10/23 09:25:42;;;;;;;5.20;2.40;;;;;;;16.03;77.76;98148.41;5029497;28;20116;-94
2022/10/23 09:28:23;;;;;;;4.78;2.78;;;;;;;16.15;77.28;98130.66;5049331;28;20104;-93
2022/10/23 09:30:51;;;;;;;4.22;3.15;;;;;;;16.47;78.08;98131.00;5043710;28;20400;-92
2022/10/23 09:33:26;;;;;;;3.45;2.63;;;;;;;16.57;75.24;98125.09;5047976;28;20037;-93
2022/10/23 09:36:01;;;;;;;3.70;2.30;;;;;;;16.73;75.34;98126.19;5035635;28;20032;-93
2022/10/23 09:38:46;;;;;;;7.20;3.22;;;;;;;16.70;75.29;98127.47;5042037;28;20032;-93
2022/10/23 09:41:26;;;;;;;6.63;2.78;;;;;;;16.70;73.69;98103.66;5048797;28;20037;-92
2022/10/23 09:44:09;;;;;;;5.90;3.00;;;;;;;17.03;74.48;98120.59;5047904;28;20053;-92
2022/10/23 09:46:44;;;;;;;6.15;2.65;;;;;;;17.17;73.81;98108.66;5029728;28;20037;-93
2022/10/23 09:49:22;;;;;;;3.88;2.45;;;;;;;17.27;73.15;98111.47;5035278;28;20029;-93
2022/10/23 09:52:24;;;;;;;5.18;2.80;;;;;;;17.35;72.62;98108.41;5036487;28;20494;-91
2022/10/23 09:54:59;;;;;;;7.03;3.03;;;;;;;17.35;70.76;98097.81;5049517;28;20033;-93
2022/10/23 09:57:37;;;;;;;3.55;2.10;;;;;;;17.39;70.52;98090.97;5065153;28;20041;-93
2022/10/23 10:00:20;;;;;;;4.18;2.42;;;;;;;17.52;70.83;98103.09;5034997;28;20099;-94
2022/10/23 10:02:56;;;;;;;2.83;1.85;;;;;;;17.69;70.59;98107.53;5048965;28;20037;-93
2022/10/23 10:05:28;;;;;;;6.30;2.10;;;;;;;17.87;70.33;98116.06;5052525;28;20036;-92
2022/10/23 10:08:20;;;;;;;4.57;2.05;;;;;;;17.96;70.71;98112.97;5069134;28;20059;-94
2022/10/23 10:11:19;;;;;;;3.72;1.83;;;;;;;18.15;68.06;98111.59;5053229;28;20064;-93
2022/10/23 10:14:12;;;;;;;3.25;1.60;;;;;;;18.17;67.94;98112.16;5068604;28;20104;-93
2022/10/23 10:16:52;;;;;;;3.25;1.98;;;;;;;18.10;66.96;98107.03;5043191;28;20056;-93
2022/10/23 10:19:41;;;;;;;2.55;2.05;;;;;;;18.26;67.84;98099.25;5039801;28;20108;-93
2022/10/23 10:22:30;;;;;;;2.92;1.80;;;;;;;18.24;67.09;98093.41;5048175;28;20089;-92
2022/10/23 10:25:35;;;;;;;3.05;1.60;;;;;;;18.27;65.55;98088.38;5045106;28;20029;-92
2022/10/23 10:28:30;;;;;;;2.80;1.77;;;;;;;18.41;66.38;98086.94;5031842;28;20045;-92
2022/10/23 10:31:13;;;;;;;3.75;1.52;;;;;;;18.42;65.17;98059.34;5039529;28;20048;-93
2022/10/23 10:34:30;;;;;;;2.95;1.20;;;;;;;18.61;65.10;98061.63;5046601;28;20044;-93
2022/10/23 10:37:12;;;;;;;2.65;1.30;;;;;;;18.69;63.59;98058.53;5060741;28;20035;-93
2022/10/23 10:40:18;;;;;;;4.22;1.70;;;;;;;18.74;64.20;98066.56;5047706;28;20030;-88
2022/10/23 10:43:00;;;;;;;2.42;1.58;;;;;;;18.87;64.84;98060.81;5049358;28;20045;-91
2022/10/23 10:45:38;;;;;;;1.83;1.50;;;;;;;19.03;64.01;98055.63;5054279;28;20041;-91
2022/10/23 10:48:38;;;;;;;3.40;1.58;;;;;;;19.17;63.35;98040.84;5054856;28;20099;-92
2022/10/23 10:51:25;;;;;;;1.90;1.40;;;;;;;19.28;62.21;98023.09;5042807;28;20029;-93
2022/10/23 10:54:00;;;;;;;4.32;1.70;;;;;;;19.61;61.32;98037.91;5049381;28;20120;-93
2022/10/23 10:56:30;;;;;;;3.10;1.30;;;;;;;19.78;60.68;98027.88;5051298;28;20488;-91
2022/10/23 10:59:03;;;;;;;1.83;1.25;;;;;;;19.92;60.91;98029.00;5045124;28;20472;-92
2022/10/23 11:01:44;;;;;;;1.77;1.27;;;;;;;20.03;61.16;98012.00;5041788;28;20037;-92
2022/10/23 11:04:28;;;;;;;;;;;;;;;20.27;60.89;98019.47;5052058;28;20037;-92
2022/10/23 11:07:00;;;;;;;1.80;1.15;;;;;;;20.19;56.77;97996.84;5061597;28;19913;-92
2022/10/23 11:09:29;;;;;;;4.30;1.40;;;;;;;20.04;57.00;97989.66;5040657;28;20033;-92
2022/10/23 11:11:54;;;;;;;4.55;1.58;;;;;;;19.90;57.14;97991.19;5044689;28;20507;-92
2022/10/23 11:14:25;;;;;;;1.55;1.20;;;;;;;19.80;56.83;97977.88;5046515;28;20032;-92
2022/10/23 11:17:23;;;;;;;1.73;1.50;;;;;;;19.62;56.31;97975.69;5045915;28;20146;-91
2022/10/23 11:20:12;;;;;;;3.67;1.60;;;;;;;19.60;57.39;97973.25;5041742;28;20547;-92
2022/10/23 11:23:45;;;;;;;1.95;1.27;;;;;;;19.71;58.50;97974.09;5049517;28;20064;-91
2022/10/23 11:26:25;;;;;;;2.88;1.38;;;;;;;19.97;55.02;98005.06;5049910;28;20033;-91
2022/10/23 11:29:03;;;;;;;2.28;1.48;;;;;;;20.15;56.18;98001.13;5043002;28;20108;-91
2022/10/23 11:31:58;;;;;;;3.40;1.30;;;;;;;20.11;54.98;97983.25;5053851;28;20489;-92
2022/10/23 11:35:04;;;;;;;1.30;1.20;;;;;;;20.24;55.65;97990.72;5047725;28;20024;-92
2022/10/23 11:37:31;;;;;;;1.45;1.35;;;;;;;20.24;54.74;98001.38;5046874;28;20036;-92
2022/10/23 11:40:23;;;;;;;1.33;1.20;;;;;;;20.13;55.15;97995.25;5041688;28;20032;-91
2022/10/23 11:42:50;;;;;;;1.17;1.10;;;;;;;20.04;55.50;98008.28;5045112;28;20348;-91
2022/10/23 11:45:34;;;;;;;1.95;1.70;;;;;;;20.05;58.51;98001.88;5049841;28;20071;-92
2022/10/23 11:48:04;;;;;;;4.35;2.47;;;;;;;20.01;57.73;97995.47;5062376;28;20037;-91
2022/10/23 11:50:52;;;;;;;5.50;2.40;;;;;;;19.94;56.01;97997.59;5043913;28;20029;-92
2022/10/23 11:53:32;;;;;;;2.45;1.80;;;;;;;19.99;55.61;97986.16;5044174;28;20286;-90
2022/10/23 11:56:13;;;;;;;1.73;1.42;;;;;;;19.95;56.44;97966.44;5035786;28;20503;-91
2022/10/23 11:58:45;;;;;;;5.72;2.30;;;;;;;19.99;55.77;97967.53;5052114;28;20123;-91
2022/10/23 12:01:41;;;;;;;6.35;2.83;;;;;;;19.91;57.57;97960.03;5059203;28;20029;-91